»·PEaware :: SKW5966 KSBP-KSFO

SKW5966 :: KSBP-KSFO

FLIGHT INFORMATION

Flight Status: Arrived
Operator:
SkyWest Airlines
More flights by this operator :: More flights under this callsign
Pilot: Charles D. (23067)
Aircraft: CANADAIR CL-600 CRJ-200
(CRJ2)
More flights by this aircraft type
Origin: KSBP San Luis Co Regl
United States
Destination: KSFO San Francisco Intl
United States
More flights between these airports :: More routes between these airports
Route: +CREPE3 FRAMS SERFR WWAVS1
File this flight plan on PilotEdge
Remarks: RMK / SIMBRIEF
Altitude:
(Current/Filed)
24,000ft
Speed:
(Current/Filed)
366kts
Departed: 06-Dec-19 09:24 AM
Arrived: 06-Dec-19 10:05 AM
Distance/Time
Traveled:
166nm/0:41
Distance/Time
To Go:
Arrived

Flight Plot

Page will automatically refresh every two minutes.

Flight plan parsing failed; only flown route is shown


Map Options




Map Legend


Flown Route
Filed Route
Departure Airport
Arrival Airport
Navaid (VOR, NDB)
Fix

Horizontal Profiles

Position Reports

Time Latitude Longitude Heading Altitude Ground
Speed
06-Dec-19 09:11 35.238330 -120.637535 269 217ft 0kts
06-Dec-19 09:12 35.238330 -120.637535 269 217ft 0kts
06-Dec-19 09:13 35.238330 -120.637535 269 217ft 0kts
06-Dec-19 09:14 35.238330 -120.637535 269 217ft 0kts
06-Dec-19 09:15 35.238330 -120.637535 269 217ft 0kts
06-Dec-19 09:16 35.238330 -120.637535 269 217ft 0kts
06-Dec-19 09:17 35.238330 -120.637535 269 217ft 0kts
06-Dec-19 09:18 35.238426 -120.637617 2 217ft 5kts
06-Dec-19 09:19 35.237361 -120.637393 210 217ft 0kts
06-Dec-19 09:20 35.236457 -120.637554 128 217ft 13kts
06-Dec-19 09:21 35.233638 -120.632674 124 217ft 8kts
06-Dec-19 09:22 35.233498 -120.632486 139 217ft 0kts
06-Dec-19 09:23 35.245367 -120.655240 306 1054ft 232kts
06-Dec-19 09:24 35.294368 -120.724814 297 4511ft 335kts
06-Dec-19 09:25 35.343257 -120.824078 302 7866ft 309kts
06-Dec-19 09:26 35.375946 -120.909173 283 9593ft 266kts
06-Dec-19 09:27 35.432072 -120.989879 328 15086ft 345kts
06-Dec-19 09:28 35.523018 -121.046777 334 20022ft 381kts
06-Dec-19 09:29 35.622079 -121.104296 334 22989ft 421kts
06-Dec-19 09:30 35.730197 -121.167087 334 23001ft 439kts
06-Dec-19 09:31 35.841540 -121.231945 334 23000ft 445kts
06-Dec-19 09:32 35.953635 -121.297446 334 23248ft 448kts
06-Dec-19 09:33 36.067697 -121.365030 330 23992ft 455kts
06-Dec-19 09:34 36.170689 -121.444484 328 24000ft 460kts
06-Dec-19 09:35 36.279782 -121.529781 328 23841ft 459kts
06-Dec-19 09:36 36.384236 -121.611733 328 22826ft 434kts
06-Dec-19 09:37 36.481731 -121.688467 327 21844ft 420kts
06-Dec-19 09:38 36.579041 -121.765336 327 20533ft 401kts
06-Dec-19 09:39 36.670307 -121.837654 327 18517ft 379kts
06-Dec-19 09:40 36.755988 -121.910015 321 16502ft 365kts
06-Dec-19 09:41 36.831863 -121.989015 319 15124ft 341kts
06-Dec-19 09:42 36.902992 -122.063821 319 13908ft 325kts
06-Dec-19 09:43 36.971242 -122.135798 319 12701ft 316kts
06-Dec-19 09:44 37.037819 -122.206180 319 11499ft 311kts
06-Dec-19 09:45 37.102943 -122.275188 319 10904ft 296kts
06-Dec-19 09:46 37.177776 -122.312372 344 10000ft 291kts
06-Dec-19 09:47 37.254388 -122.338935 344 8794ft 279kts
06-Dec-19 09:48 37.328556 -122.364443 344 7910ft 278kts
06-Dec-19 09:49 37.402309 -122.389838 344 7909ft 278kts
06-Dec-19 09:50 37.477282 -122.415699 344 7907ft 277kts
06-Dec-19 09:51 37.549838 -122.440725 345 6800ft 251kts
06-Dec-19 09:52 37.609753 -122.461415 344 5909ft 206kts
06-Dec-19 09:53 37.668944 -122.476547 14 5913ft 227kts
06-Dec-19 09:54 37.730865 -122.456139 13 5911ft 232kts
06-Dec-19 09:55 37.788045 -122.427289 33 5410ft 218kts
06-Dec-19 09:56 37.837195 -122.386401 33 3908ft 206kts
06-Dec-19 09:57 37.870089 -122.349882 87 3704ft 176kts
06-Dec-19 09:58 37.838976 -122.314391 183 3022ft 170kts
06-Dec-19 09:59 37.790352 -122.315443 173 2998ft 164kts
06-Dec-19 10:00 37.743468 -122.311314 173 2104ft 178kts
06-Dec-19 10:01 37.701233 -122.318483 205 1662ft 148kts
06-Dec-19 10:02 37.663667 -122.342969 204 843ft 151kts
06-Dec-19 10:03 37.630603 -122.365038 204 149ft 124kts
06-Dec-19 10:04 37.612956 -122.377754 271 18ft 16kts
06-Dec-19 10:05 37.613914 -122.380292 334 18ft 10kts
06-Dec-19 10:06 37.618322 -122.378849 338 18ft 19kts
06-Dec-19 10:07 37.621686 -122.385059 297 18ft 23kts
06-Dec-19 10:08 37.620960 -122.386509 253 18ft 0kts
06-Dec-19 10:09 37.620954 -122.386537 253 18ft 0kts

Navigation Log

Ident Type
Flight plan parsing failed, navigation log unavailable